createdAt,value
2023-02-15T00:02:44.287Z,100.00
2023-02-15T00:05:50.931Z,100.00
2023-02-15T00:08:57.633Z,100.00
2023-02-15T00:12:04.405Z,100.00
2023-02-15T00:15:10.782Z,100.00
2023-02-15T00:18:18.813Z,100.00
2023-02-15T00:21:25.335Z,100.00
2023-02-15T00:24:31.640Z,100.00
2023-02-15T00:27:38.353Z,100.00
2023-02-15T00:30:45.331Z,100.00
2023-02-15T00:33:53.204Z,100.00
2023-02-15T00:36:59.676Z,100.00
2023-02-15T00:40:07.518Z,100.00
2023-02-15T00:43:14.024Z,100.00
2023-02-15T00:46:20.037Z,100.00
2023-02-15T00:49:27.820Z,100.00
2023-02-15T00:52:34.164Z,100.00
2023-02-15T00:55:41.394Z,100.00
2023-02-15T00:58:48.104Z,100.00
2023-02-15T01:01:54.595Z,100.00
2023-02-15T01:05:02.577Z,100.00
2023-02-15T01:08:09.390Z,100.00
2023-02-15T01:11:23.016Z,100.00
2023-02-15T01:14:29.479Z,100.00
2023-02-15T01:17:35.708Z,100.00
2023-02-15T01:20:43.296Z,100.00
2023-02-15T01:23:49.693Z,100.00
2023-02-15T01:26:56.068Z,100.00
2023-02-15T01:30:02.341Z,100.00
2023-02-15T01:33:08.670Z,100.00
2023-02-15T01:36:18.484Z,100.00
2023-02-15T01:39:25.071Z,100.00
2023-02-15T01:42:33.162Z,100.00
2023-02-15T01:45:39.917Z,100.00
2023-02-15T01:48:48.874Z,100.00
2023-02-15T01:51:56.693Z,100.00
2023-02-15T01:55:03.602Z,100.00
2023-02-15T01:58:10.253Z,100.00
2023-02-15T02:01:16.791Z,100.00
2023-02-15T02:04:31.451Z,100.00
2023-02-15T02:07:42.825Z,100.00
2023-02-15T02:10:49.196Z,100.00
2023-02-15T02:13:57.425Z,100.00
2023-02-15T02:17:12.089Z,100.00
2023-02-15T02:20:59.495Z,100.00
2023-02-15T02:24:33.685Z,100.00
2023-02-15T02:27:43.689Z,100.00
2023-02-15T02:31:23.212Z,100.00
2023-02-15T02:34:36.473Z,100.00
2023-02-15T02:37:52.857Z,100.00
2023-02-15T02:41:10.806Z,100.00
2023-02-15T02:44:21.596Z,100.00
2023-02-15T02:47:33.132Z,100.00
2023-02-15T02:50:42.108Z,100.00
2023-02-15T02:53:48.598Z,100.00
2023-02-15T02:56:57.052Z,100.00
2023-02-15T03:00:06.628Z,100.00
2023-02-15T03:03:16.926Z,100.00
2023-02-15T03:06:30.731Z,100.00
2023-02-15T03:09:45.456Z,100.00
2023-02-15T03:12:53.355Z,100.00
2023-02-15T03:16:18.381Z,100.00
2023-02-15T03:19:29.938Z,100.00
2023-02-15T03:22:40.800Z,100.00
2023-02-15T03:25:53.757Z,100.00
2023-02-15T03:29:03.000Z,100.00
2023-02-15T03:32:13.428Z,100.00
2023-02-15T03:35:23.692Z,100.00
2023-02-15T03:38:38.823Z,100.00
2023-02-15T03:41:52.263Z,100.00
2023-02-15T03:45:02.013Z,100.00
2023-02-15T03:48:09.437Z,100.00
2023-02-15T03:51:39.207Z,100.00
2023-02-15T03:54:48.191Z,100.00
2023-02-15T03:58:12.104Z,100.00
2023-02-15T04:01:45.685Z,100.00
2023-02-15T04:04:52.305Z,100.00
2023-02-15T04:07:58.735Z,100.00
2023-02-15T04:11:05.389Z,100.00
2023-02-15T04:14:25.308Z,100.00
2023-02-15T04:17:31.898Z,100.00
2023-02-15T04:20:55.786Z,100.00
2023-02-15T04:24:19.879Z,100.00
2023-02-15T04:27:27.677Z,100.00
2023-02-15T04:30:34.094Z,100.00
2023-02-15T04:33:40.323Z,100.00
2023-02-15T04:36:46.617Z,100.00
2023-02-15T04:39:52.854Z,100.00
2023-02-15T04:43:00.747Z,100.00
2023-02-15T04:46:07.456Z,100.00
2023-02-15T04:49:13.966Z,100.00
2023-02-15T04:52:20.015Z,100.00
2023-02-15T04:55:27.819Z,100.00
2023-02-15T04:58:36.213Z,100.00
2023-02-15T05:01:42.636Z,100.00
2023-02-15T05:04:48.917Z,100.00
2023-02-15T05:07:55.430Z,100.00
2023-02-15T05:11:02.062Z,100.00
2023-02-15T05:14:10.035Z,100.00
2023-02-15T05:17:16.395Z,100.00
2023-02-15T05:20:22.661Z,100.00
2023-02-15T05:23:29.334Z,100.00
2023-02-15T05:26:53.226Z,100.00
2023-02-15T05:30:01.372Z,100.00
2023-02-15T05:33:08.342Z,100.00
2023-02-15T05:36:14.928Z,100.00
2023-02-15T05:39:21.476Z,100.00
2023-02-15T05:42:27.854Z,100.00
2023-02-15T05:45:35.786Z,100.00
2023-02-15T05:48:42.281Z,100.00
2023-02-15T05:51:48.477Z,100.00
2023-02-15T05:54:55.265Z,100.00
2023-02-15T05:58:01.607Z,100.00
2023-02-15T06:01:15.789Z,100.00
2023-02-15T06:04:22.227Z,100.00
2023-02-15T06:07:28.813Z,100.00
2023-02-15T06:10:34.999Z,100.00
2023-02-15T06:13:41.126Z,100.00
2023-02-15T06:16:48.769Z,100.00
2023-02-15T06:19:55.145Z,100.00
2023-02-15T06:23:01.193Z,100.00
2023-02-15T06:26:07.171Z,100.00
2023-02-15T06:29:13.470Z,100.00
2023-02-15T06:32:21.067Z,100.00
2023-02-15T06:35:27.754Z,100.00
2023-02-15T06:38:34.127Z,100.00
2023-02-15T06:41:41.422Z,100.00
2023-02-15T06:44:47.898Z,100.00
2023-02-15T06:47:55.543Z,100.00
2023-02-15T06:51:01.658Z,100.00
2023-02-15T06:54:08.192Z,100.00
2023-02-15T06:57:15.012Z,100.00
2023-02-15T07:00:23.329Z,100.00
2023-02-15T07:03:31.241Z,100.00
2023-02-15T07:06:37.828Z,100.00
2023-02-15T07:09:44.176Z,100.00
2023-02-15T07:12:50.383Z,100.00
2023-02-15T07:15:56.398Z,100.00
2023-02-15T07:19:04.096Z,100.00
2023-02-15T07:22:10.690Z,97.64
2023-02-15T07:25:17.224Z,97.01
2023-02-15T07:28:23.195Z,95.51
2023-02-15T07:31:29.486Z,94.13
2023-02-15T07:34:37.014Z,92.54
2023-02-15T07:37:43.146Z,92.77
2023-02-15T07:40:49.732Z,92.25
2023-02-15T07:43:56.118Z,89.94
2023-02-15T07:47:02.449Z,93.20
2023-02-15T07:50:11.163Z,89.84
2023-02-15T07:53:17.542Z,88.54
2023-02-15T07:56:23.912Z,87.54
2023-02-15T07:59:29.976Z,88.97
2023-02-15T08:02:38.187Z,88.75
2023-02-15T08:05:47.214Z,88.69
2023-02-15T08:08:54.173Z,90.19
2023-02-15T08:12:00.375Z,88.78
2023-02-15T08:15:07.320Z,89.80
2023-02-15T08:18:13.967Z,90.96
2023-02-15T08:21:24.541Z,92.50
2023-02-15T08:24:33.386Z,90.70
2023-02-15T08:27:39.871Z,90.04
2023-02-15T08:30:46.358Z,90.65
2023-02-15T08:33:54.331Z,90.46
2023-02-15T08:37:02.357Z,90.08
2023-02-15T08:40:09.974Z,87.29
2023-02-15T08:43:16.200Z,87.74
2023-02-15T08:46:24.415Z,86.74
2023-02-15T08:49:30.934Z,84.30
2023-02-15T08:52:38.905Z,84.30
2023-02-15T08:55:44.887Z,79.99
2023-02-15T08:58:51.299Z,82.57
2023-02-15T09:01:58.105Z,81.46
2023-02-15T09:05:04.953Z,82.34
2023-02-15T09:08:12.309Z,80.39
2023-02-15T09:11:25.056Z,79.79
2023-02-15T09:14:31.558Z,77.06
2023-02-15T09:17:37.755Z,75.66
2023-02-15T09:20:43.835Z,75.78
2023-02-15T09:23:52.669Z,74.46
2023-02-15T09:26:58.789Z,71.91
2023-02-15T09:30:05.222Z,72.67
2023-02-15T09:33:11.632Z,72.75
2023-02-15T09:36:19.841Z,69.76
2023-02-15T09:39:29.159Z,70.02
2023-02-15T09:42:58.862Z,67.31
2023-02-15T09:46:20.939Z,69.75
2023-02-15T09:49:40.497Z,70.23
2023-02-15T09:53:08.049Z,67.33
2023-02-15T09:56:25.275Z,66.27
2023-02-15T09:59:44.374Z,62.87
2023-02-15T10:03:06.946Z,61.19
2023-02-15T10:06:34.091Z,59.43
2023-02-15T10:09:53.848Z,57.60
2023-02-15T10:13:15.513Z,58.17
2023-02-15T10:16:30.805Z,56.71
2023-02-15T10:19:45.651Z,58.39
2023-02-15T10:23:10.781Z,58.08
2023-02-15T10:26:21.204Z,56.93
2023-02-15T10:29:34.261Z,55.33
2023-02-15T10:32:50.972Z,55.34
2023-02-15T10:36:08.880Z,54.24
2023-02-15T10:39:22.353Z,52.55
2023-02-15T10:42:37.939Z,53.17
2023-02-15T10:45:55.559Z,53.33
2023-02-15T10:49:21.679Z,52.64
2023-02-15T10:52:35.774Z,52.55
2023-02-15T10:55:53.634Z,51.89
2023-02-15T10:59:22.126Z,51.07
2023-02-15T11:02:42.651Z,51.56
2023-02-15T11:06:00.411Z,53.16
2023-02-15T11:09:12.800Z,51.84
2023-02-15T11:12:24.788Z,53.10
2023-02-15T11:15:35.681Z,53.82
2023-02-15T11:18:49.011Z,52.49
2023-02-15T11:22:00.342Z,53.00
2023-02-15T11:25:19.736Z,52.83
2023-02-15T11:28:32.124Z,51.82
2023-02-15T11:31:46.174Z,52.01
2023-02-15T11:34:58.246Z,51.17
2023-02-15T11:38:12.370Z,49.99
2023-02-15T11:41:25.351Z,49.66
2023-02-15T11:44:37.295Z,49.23
2023-02-15T11:47:43.492Z,48.81
2023-02-15T11:50:50.892Z,49.64
2023-02-15T11:53:58.009Z,48.38
2023-02-15T11:57:16.888Z,48.79
2023-02-15T12:00:37.076Z,49.51
2023-02-15T12:03:49.199Z,48.24
2023-02-15T12:07:02.736Z,47.51
2023-02-15T12:10:21.661Z,48.29
2023-02-15T12:13:28.030Z,48.85
2023-02-15T12:16:43.348Z,46.95
2023-02-15T12:19:53.610Z,47.15
2023-02-15T12:23:06.142Z,47.96
2023-02-15T12:26:13.444Z,47.13
2023-02-15T12:29:23.997Z,47.39
2023-02-15T12:32:33.133Z,47.48
2023-02-15T12:35:39.275Z,47.67
2023-02-15T12:39:05.226Z,47.27
2023-02-15T12:42:20.454Z,46.17
2023-02-15T12:45:30.226Z,48.04
2023-02-15T12:48:40.787Z,48.13
2023-02-15T12:51:50.449Z,46.98
2023-02-15T12:55:12.046Z,47.67
2023-02-15T12:58:19.822Z,47.37
2023-02-15T13:01:27.820Z,46.19
2023-02-15T13:04:34.653Z,46.75
2023-02-15T13:07:40.645Z,47.26
2023-02-15T13:10:58.359Z,46.30
2023-02-15T13:14:06.140Z,46.35
2023-02-15T13:17:14.485Z,44.80
2023-02-15T13:20:23.960Z,44.76
2023-02-15T13:23:33.278Z,44.35
2023-02-15T13:26:45.833Z,44.71
2023-02-15T13:29:55.005Z,44.95
2023-02-15T13:33:05.186Z,44.87
2023-02-15T13:36:19.172Z,44.63
2023-02-15T13:39:31.425Z,44.57
2023-02-15T13:42:42.685Z,43.70
2023-02-15T13:46:03.737Z,44.46
2023-02-15T13:49:21.243Z,43.95
2023-02-15T13:52:30.981Z,43.85
2023-02-15T13:55:48.096Z,44.30
2023-02-15T13:59:22.213Z,43.31
2023-02-15T14:02:54.701Z,44.67
2023-02-15T14:06:21.753Z,47.01
2023-02-15T14:09:42.859Z,45.35
2023-02-15T14:13:03.887Z,45.94
2023-02-15T14:16:19.698Z,47.90
2023-02-15T14:19:33.519Z,47.42
2023-02-15T14:22:44.210Z,49.05
2023-02-15T14:25:57.524Z,49.05
2023-02-15T14:29:16.222Z,49.98
2023-02-15T14:32:32.393Z,51.04
2023-02-15T14:35:39.530Z,51.13
2023-02-15T14:38:58.111Z,51.86
2023-02-15T14:42:10.508Z,53.20
2023-02-15T14:45:21.642Z,54.34
2023-02-15T14:48:33.704Z,55.20
2023-02-15T14:52:01.108Z,56.39
2023-02-15T14:55:09.454Z,57.37
2023-02-15T14:58:16.131Z,57.05
2023-02-15T15:01:29.064Z,58.27
2023-02-15T15:04:40.375Z,56.44
2023-02-15T15:07:49.326Z,56.83
2023-02-15T15:10:56.703Z,56.92
2023-02-15T15:14:03.472Z,57.06
2023-02-15T15:17:13.905Z,58.33
2023-02-15T15:20:42.977Z,57.92
2023-02-15T15:23:49.869Z,58.48
2023-02-15T15:27:46.240Z,59.18
2023-02-15T15:30:53.264Z,60.33
2023-02-15T15:34:35.286Z,61.20
2023-02-15T15:38:01.657Z,62.28
2023-02-15T15:41:21.107Z,63.24
2023-02-15T15:45:05.585Z,64.17
2023-02-15T15:48:31.905Z,65.51
2023-02-15T15:51:43.794Z,65.30
2023-02-15T15:54:57.068Z,64.58
2023-02-15T15:58:06.550Z,65.47
2023-02-15T16:01:14.889Z,63.57
2023-02-15T16:04:27.465Z,66.24
2023-02-15T16:07:34.119Z,69.67
2023-02-15T16:10:43.151Z,68.61
2023-02-15T16:13:49.807Z,72.16
2023-02-15T16:16:59.499Z,71.50
2023-02-15T16:20:13.793Z,74.29
2023-02-15T16:23:49.912Z,74.14
2023-02-15T16:27:14.040Z,74.29
2023-02-15T16:30:24.561Z,76.74
2023-02-15T16:33:38.640Z,73.95
2023-02-15T16:36:44.878Z,77.07
2023-02-15T16:39:52.451Z,76.81
2023-02-15T16:43:04.171Z,76.27
2023-02-15T16:46:14.618Z,77.24
2023-02-15T16:49:23.353Z,77.40
2023-02-15T16:52:31.390Z,80.89
2023-02-15T16:55:42.236Z,84.41
2023-02-15T16:58:53.114Z,85.55
2023-02-15T17:02:00.285Z,87.18
2023-02-15T17:05:24.918Z,87.47
2023-02-15T17:08:33.437Z,88.49
2023-02-15T17:11:43.650Z,90.75
2023-02-15T17:14:57.118Z,90.71
2023-02-15T17:18:07.119Z,91.72
2023-02-15T17:21:16.317Z,92.00
2023-02-15T17:24:33.895Z,94.61
2023-02-15T17:27:40.598Z,92.95
2023-02-15T17:30:49.724Z,94.86
2023-02-15T17:33:56.973Z,94.65
2023-02-15T17:37:03.505Z,96.42
2023-02-15T17:40:21.074Z,95.21
2023-02-15T17:43:27.467Z,93.69
2023-02-15T17:46:39.174Z,94.69
2023-02-15T17:49:46.608Z,97.04
2023-02-15T17:52:53.395Z,95.63
2023-02-15T17:56:00.070Z,97.45
2023-02-15T17:59:07.759Z,97.36
2023-02-15T18:02:33.065Z,96.13
2023-02-15T18:05:57.076Z,98.45
2023-02-15T18:09:21.270Z,97.77
2023-02-15T18:12:29.807Z,97.00
2023-02-15T18:15:36.648Z,98.31
2023-02-15T18:18:46.229Z,100.00
2023-02-15T18:21:55.788Z,100.00
2023-02-15T18:25:02.388Z,100.00
2023-02-15T18:28:09.647Z,100.00
2023-02-15T18:31:16.882Z,99.90
2023-02-15T18:34:29.261Z,100.00
2023-02-15T18:37:35.588Z,98.61
2023-02-15T18:40:42.186Z,100.00
2023-02-15T18:43:51.159Z,100.00
2023-02-15T18:46:57.558Z,100.00
2023-02-15T18:50:05.368Z,100.00
2023-02-15T18:53:18.282Z,100.00
2023-02-15T18:56:24.749Z,100.00
2023-02-15T18:59:32.588Z,100.00
2023-02-15T19:02:39.181Z,100.00
2023-02-15T19:05:48.402Z,100.00
2023-02-15T19:08:55.003Z,100.00
2023-02-15T19:12:01.477Z,100.00
2023-02-15T19:15:09.719Z,100.00
2023-02-15T19:18:17.047Z,100.00
2023-02-15T19:21:25.548Z,100.00
2023-02-15T19:24:39.717Z,100.00
2023-02-15T19:27:47.195Z,100.00
2023-02-15T19:30:53.731Z,100.00
2023-02-15T19:33:59.871Z,100.00
2023-02-15T19:37:13.119Z,100.00
2023-02-15T19:40:22.775Z,100.00
2023-02-15T19:43:30.301Z,100.00
2023-02-15T19:46:37.524Z,100.00
2023-02-15T19:49:43.772Z,100.00
2023-02-15T19:52:51.777Z,100.00
2023-02-15T19:55:58.252Z,100.00
2023-02-15T19:59:04.625Z,100.00
2023-02-15T20:02:14.828Z,100.00
2023-02-15T20:05:21.462Z,100.00
2023-02-15T20:08:30.771Z,100.00
2023-02-15T20:11:36.864Z,100.00
2023-02-15T20:14:43.433Z,100.00
2023-02-15T20:17:50.130Z,100.00
2023-02-15T20:20:56.797Z,100.00
2023-02-15T20:24:05.557Z,100.00
2023-02-15T20:27:17.185Z,100.00
2023-02-15T20:30:26.306Z,100.00
2023-02-15T20:33:32.563Z,100.00
2023-02-15T20:36:40.117Z,100.00
2023-02-15T20:39:47.877Z,100.00
2023-02-15T20:42:54.512Z,100.00
2023-02-15T20:46:01.089Z,100.00
2023-02-15T20:49:07.703Z,100.00
2023-02-15T20:52:20.765Z,100.00
2023-02-15T20:55:30.367Z,100.00
2023-02-15T20:58:38.722Z,100.00
2023-02-15T21:01:46.358Z,100.00
2023-02-15T21:04:53.299Z,100.00
2023-02-15T21:07:59.858Z,100.00
2023-02-15T21:11:19.416Z,100.00
2023-02-15T21:14:28.302Z,100.00
2023-02-15T21:17:34.598Z,100.00
2023-02-15T21:20:45.409Z,100.00
2023-02-15T21:23:53.867Z,100.00
2023-02-15T21:27:03.961Z,100.00
2023-02-15T21:30:16.317Z,100.00
2023-02-15T21:33:22.863Z,100.00
2023-02-15T21:36:29.465Z,100.00
2023-02-15T21:39:37.858Z,100.00
2023-02-15T21:43:03.136Z,100.00
2023-02-15T21:46:32.249Z,100.00
2023-02-15T21:49:38.848Z,100.00
2023-02-15T21:52:44.928Z,100.00
2023-02-15T21:55:58.822Z,100.00
2023-02-15T21:59:11.425Z,100.00
2023-02-15T22:02:28.886Z,100.00
2023-02-15T22:05:35.308Z,100.00
2023-02-15T22:08:41.776Z,100.00
2023-02-15T22:11:48.892Z,100.00
2023-02-15T22:14:56.881Z,100.00
2023-02-15T22:18:03.722Z,100.00
2023-02-15T22:21:12.104Z,100.00
2023-02-15T22:24:18.645Z,100.00
2023-02-15T22:27:27.818Z,100.00
2023-02-15T22:30:38.217Z,100.00
2023-02-15T22:33:45.840Z,100.00
2023-02-15T22:36:52.218Z,100.00
2023-02-15T22:39:58.410Z,100.00
2023-02-15T22:43:06.952Z,100.00
2023-02-15T22:46:20.193Z,100.00
2023-02-15T22:49:26.327Z,100.00
2023-02-15T22:52:32.599Z,100.00
2023-02-15T22:55:39.880Z,100.00
2023-02-15T22:58:48.433Z,100.00
2023-02-15T23:01:56.719Z,100.00
2023-02-15T23:05:02.760Z,100.00
2023-02-15T23:08:10.110Z,100.00
2023-02-15T23:11:16.501Z,100.00
2023-02-15T23:14:27.597Z,100.00
2023-02-15T23:17:34.920Z,100.00
2023-02-15T23:20:41.169Z,100.00
2023-02-15T23:23:50.211Z,100.00
2023-02-15T23:27:16.334Z,100.00
2023-02-15T23:30:23.287Z,100.00
2023-02-15T23:33:34.190Z,100.00
2023-02-15T23:36:41.224Z,100.00
2023-02-15T23:40:05.064Z,100.00
2023-02-15T23:43:21.142Z,100.00
2023-02-15T23:46:30.276Z,100.00
2023-02-15T23:49:38.138Z,100.00
2023-02-15T23:52:44.270Z,100.00
2023-02-15T23:55:50.682Z,100.00
2023-02-15T23:58:56.718Z,100.00
